LiveATC.Net - Listen to live air traffic control over the Internet! Contact LiveATC.net for advertising information


ICAO: OPKC  IATA: KHI   Airport: Jinnah International Airport
City: Karachi
Country: Pakistan   Continent: Asia
OPKC METAR Weather: OPKC 250325Z 06003KT 6000 NSC 24/09 Q1012 NOSIG
OPKC Flight Activity (FlightAware)
OPKC Gnd/Twr/Radar
Feed Status: DOWN
Last heard on: 2014-10-25 02:44:03 (0 days 0 hours 49 minutes ago)
OPKC Gnd/Twr/Radar Audio Archives
FacilityFrequency
Karachi Ground121.600
Karachi Radar125.500
Karachi Tower118.300


NOTICE

Unauthorized use prohibited. See LiveATC.net Terms of Service


Find LiveATC Audio Streams


Airport/ARTCC Code

Frequency
(e.g., 124.400, 128.75)
Site-wide search

Browse LiveATC Feeds
LiveATC Coverage Map
Top 50 LiveATC Feeds
Bad Weather Areas

LiveATC FAQ
Offer a LiveATC Feed
Contact LiveATC.net
Press Inquiries

LiveATC on iPhone
LiveATC on Android

LiveATC Mobile
(Mobile browser)

ATC Audio Archives
Interesting Recordings

LiveATC Forums


Home Page
About LiveATC.net
Make a Donation
LiveATC Bookstore

Terms of Use
Privacy Policy

ATC/Radar Sites
U.S. ARTCC Freqs
Canadian Air Freqs

AIRMETs/SIGMETs

FAA Airport Status
Nat'l Airspace Status
Arrival Demand Charts


Server Software By:
Icecast.org
Liquidsoap

Please make a donation to help us keep growing!